createdAt,value
2023-03-06T00:02:31.087Z,32.05
2023-03-06T00:05:22.853Z,34.90
2023-03-06T00:08:14.115Z,32.98
2023-03-06T00:11:05.505Z,32.83
2023-03-06T00:13:57.083Z,34.65
2023-03-06T00:16:48.737Z,32.33
2023-03-06T00:19:40.487Z,34.08
2023-03-06T00:22:32.158Z,32.20
2023-03-06T00:25:25.227Z,33.25
2023-03-06T00:28:17.899Z,33.20
2023-03-06T00:31:10.817Z,34.10
2023-03-06T00:34:07.531Z,32.20
2023-03-06T00:37:07.691Z,34.23
2023-03-06T00:39:58.911Z,30.48
2023-03-06T00:42:50.689Z,34.85
2023-03-06T00:45:43.927Z,30.23
2023-03-06T00:48:35.849Z,34.78
2023-03-06T00:51:29.995Z,35.83
2023-03-06T00:54:21.752Z,32.53
2023-03-06T00:57:13.080Z,34.48
2023-03-06T01:00:05.180Z,33.95
2023-03-06T01:02:56.240Z,33.28
2023-03-06T01:05:47.703Z,33.58
2023-03-06T01:08:39.399Z,29.98
2023-03-06T01:11:30.950Z,37.03
2023-03-06T01:14:23.889Z,32.75
2023-03-06T01:17:16.112Z,34.58
2023-03-06T01:20:11.578Z,30.65
2023-03-06T01:23:04.625Z,34.05
2023-03-06T01:25:59.121Z,30.70
2023-03-06T01:28:50.824Z,33.40
2023-03-06T01:31:42.712Z,32.48
2023-03-06T01:34:34.772Z,33.67
2023-03-06T01:37:27.039Z,31.35
2023-03-06T01:40:18.507Z,33.88
2023-03-06T01:43:15.318Z,36.60
2023-03-06T01:46:30.747Z,33.88
2023-03-06T01:49:25.210Z,33.75
2023-03-06T01:55:10.133Z,33.63
2023-03-06T01:58:04.454Z,34.08
2023-03-06T02:00:55.962Z,34.10
2023-03-06T02:03:49.814Z,35.23
2023-03-06T02:06:44.202Z,35.75
2023-03-06T02:09:37.440Z,30.45
2023-03-06T02:12:29.460Z,36.83
2023-03-06T02:15:26.478Z,36.85
2023-03-06T02:18:18.149Z,35.48
2023-03-06T02:21:12.658Z,41.20
2023-03-06T02:24:11.207Z,47.48
2023-03-06T02:27:05.526Z,48.85
2023-03-06T02:29:57.182Z,58.95
2023-03-06T02:32:48.574Z,76.62
2023-03-06T02:35:41.475Z,80.60
2023-03-06T02:38:35.681Z,87.10
2023-03-06T02:41:27.456Z,76.92
2023-03-06T02:44:18.921Z,70.22
2023-03-06T02:47:10.203Z,63.17
2023-03-06T02:50:01.732Z,64.80
2023-03-06T02:52:53.117Z,61.90
2023-03-06T02:55:44.700Z,61.85
2023-03-06T02:58:40.858Z,64.87
2023-03-06T03:04:14.503Z,45.35
2023-03-06T03:07:08.284Z,43.28
2023-03-06T03:10:00.361Z,38.95
2023-03-06T03:12:52.809Z,37.20
2023-03-06T03:15:44.559Z,37.73
2023-03-06T03:18:37.033Z,40.50
2023-03-06T03:21:29.059Z,38.58
2023-03-06T03:24:20.662Z,39.90
2023-03-06T03:27:12.185Z,34.30
2023-03-06T03:30:04.704Z,38.02
2023-03-06T03:32:56.228Z,35.30
2023-03-06T03:35:48.108Z,37.28
2023-03-06T03:38:40.638Z,35.58
2023-03-06T03:41:32.012Z,34.70
2023-03-06T03:44:28.854Z,30.57
2023-03-06T03:47:20.548Z,33.25
2023-03-06T03:50:31.056Z,34.63
2023-03-06T03:53:23.638Z,34.48
2023-03-06T03:56:15.100Z,31.40
2023-03-06T03:59:08.220Z,34.10
2023-03-06T04:02:03.061Z,31.93
2023-03-06T04:04:58.475Z,28.85
2023-03-06T04:07:50.763Z,34.80
2023-03-06T04:10:42.468Z,34.63
2023-03-06T04:13:34.357Z,33.42
2023-03-06T04:16:29.171Z,32.00
2023-03-06T04:19:20.868Z,33.90
2023-03-06T04:22:13.101Z,36.28
2023-03-06T04:25:05.034Z,34.95
2023-03-06T04:27:58.603Z,34.63
2023-03-06T04:30:50.541Z,35.05
2023-03-06T04:33:42.140Z,35.35
2023-03-06T04:36:35.758Z,35.30
2023-03-06T04:39:28.437Z,31.60
2023-03-06T04:42:20.326Z,31.87
2023-03-06T04:45:13.417Z,31.80
2023-03-06T04:48:04.885Z,33.53
2023-03-06T04:53:40.829Z,40.23
2023-03-06T04:56:32.312Z,34.43
2023-03-06T04:59:23.701Z,38.20
2023-03-06T05:02:14.932Z,41.58
2023-03-06T05:05:07.719Z,39.75
2023-03-06T05:08:01.764Z,39.30
2023-03-06T05:10:57.997Z,35.85
2023-03-06T05:13:49.693Z,35.73
2023-03-06T05:16:41.037Z,37.70
2023-03-06T05:19:32.764Z,36.17
2023-03-06T05:22:24.405Z,39.23
2023-03-06T05:25:16.534Z,38.15
2023-03-06T05:28:21.266Z,38.53
2023-03-06T05:31:13.247Z,34.45
2023-03-06T05:34:04.779Z,39.33
2023-03-06T05:37:03.970Z,40.38
2023-03-06T05:39:55.624Z,35.43
2023-03-06T05:42:47.221Z,37.35
2023-03-06T05:45:39.173Z,37.88
2023-03-06T05:48:30.753Z,37.30
2023-03-06T05:51:22.223Z,37.63
2023-03-06T05:54:13.877Z,40.00
2023-03-06T05:57:05.995Z,42.88
2023-03-06T05:59:57.478Z,42.53
2023-03-06T06:02:51.878Z,41.83
2023-03-06T06:05:43.294Z,38.17
2023-03-06T06:08:35.189Z,41.15
2023-03-06T06:11:26.632Z,41.73
2023-03-06T06:14:17.859Z,40.38
2023-03-06T06:17:09.927Z,42.43
2023-03-06T06:20:01.229Z,40.83
2023-03-06T06:22:52.934Z,38.33
2023-03-06T06:25:44.714Z,37.28
2023-03-06T06:28:38.535Z,39.30
2023-03-06T06:31:30.166Z,38.17
2023-03-06T06:34:22.100Z,39.53
2023-03-06T06:37:13.449Z,42.25
2023-03-06T06:40:05.615Z,37.53
2023-03-06T06:42:57.301Z,39.88
2023-03-06T06:45:49.624Z,44.18
2023-03-06T06:48:41.745Z,40.98
2023-03-06T06:51:37.616Z,40.90
2023-03-06T06:54:28.940Z,38.58
2023-03-06T06:57:20.008Z,41.25
2023-03-06T07:00:16.014Z,39.48
2023-03-06T07:05:49.541Z,41.48
2023-03-06T07:08:40.766Z,41.73
2023-03-06T07:11:32.220Z,38.05
2023-03-06T07:14:23.704Z,44.67
2023-03-06T07:17:14.840Z,42.43
2023-03-06T07:20:07.352Z,39.00
2023-03-06T07:22:59.249Z,43.28
2023-03-06T07:25:50.828Z,38.40
2023-03-06T07:28:52.021Z,44.77
2023-03-06T07:31:35.534Z,42.78
2023-03-06T07:34:27.809Z,41.75
2023-03-06T07:37:20.254Z,42.08
2023-03-06T07:40:14.216Z,43.40
2023-03-06T07:43:18.829Z,47.15
2023-03-06T07:46:01.226Z,45.60
2023-03-06T07:48:52.460Z,46.68
2023-03-06T07:51:44.051Z,43.58
2023-03-06T07:54:37.614Z,40.45
2023-03-06T07:57:29.543Z,40.52
2023-03-06T08:00:21.821Z,43.35
2023-03-06T08:03:14.473Z,41.00
2023-03-06T08:06:11.432Z,43.40
2023-03-06T08:09:03.234Z,44.27
2023-03-06T08:11:54.713Z,43.87
2023-03-06T08:14:46.221Z,42.85
2023-03-06T08:17:45.973Z,45.55
2023-03-06T08:20:40.083Z,44.53
2023-03-06T08:23:39.366Z,42.90
2023-03-06T08:26:32.176Z,44.95
2023-03-06T08:29:23.596Z,46.30
2023-03-06T08:32:14.993Z,41.40
2023-03-06T08:35:08.647Z,45.67
2023-03-06T08:37:59.917Z,41.05
2023-03-06T08:40:54.017Z,46.88
2023-03-06T08:43:45.424Z,42.90
2023-03-06T08:46:40.079Z,45.05
2023-03-06T08:49:33.127Z,43.40
2023-03-06T08:52:24.522Z,44.73
2023-03-06T08:55:16.842Z,46.10
2023-03-06T08:58:24.760Z,44.00
2023-03-06T09:01:19.498Z,46.30
2023-03-06T09:04:12.786Z,43.90
2023-03-06T09:07:04.827Z,44.70
2023-03-06T09:10:00.813Z,44.70
2023-03-06T09:12:56.599Z,41.48
2023-03-06T09:15:50.245Z,42.83
2023-03-06T09:18:47.547Z,44.58
2023-03-06T09:21:51.487Z,40.05
2023-03-06T09:24:45.847Z,39.63
2023-03-06T09:27:40.687Z,41.23
2023-03-06T09:30:33.440Z,41.05
2023-03-06T09:33:27.487Z,42.85
2023-03-06T09:36:25.803Z,41.83
2023-03-06T09:39:23.088Z,40.95
2023-03-06T09:42:24.762Z,37.45
2023-03-06T09:45:28.995Z,42.33
2023-03-06T09:51:09.372Z,42.48
2023-03-06T09:54:06.979Z,43.33
2023-03-06T09:56:58.923Z,37.35
2023-03-06T09:59:54.766Z,40.45
2023-03-06T10:02:49.156Z,41.10
2023-03-06T10:05:45.538Z,35.73
2023-03-06T10:08:41.981Z,36.58
2023-03-06T10:11:38.281Z,39.65
2023-03-06T10:14:35.730Z,33.75
2023-03-06T10:17:29.704Z,32.93
2023-03-06T10:20:26.826Z,35.15
2023-03-06T10:23:32.977Z,35.63
2023-03-06T10:26:32.728Z,38.28
2023-03-06T10:30:02.671Z,31.97
2023-03-06T10:35:32.411Z,35.25
2023-03-06T10:38:26.375Z,32.70
2023-03-06T10:41:27.474Z,30.35
2023-03-06T10:44:27.155Z,32.73
2023-03-06T10:47:33.955Z,31.12
2023-03-06T10:50:30.855Z,33.42
2023-03-06T10:53:29.531Z,32.08
2023-03-06T10:59:22.707Z,29.95
2023-03-06T11:02:28.347Z,34.45
2023-03-06T11:05:22.597Z,29.65
2023-03-06T11:08:29.632Z,34.98
2023-03-06T11:11:37.194Z,31.07
2023-03-06T11:17:32.259Z,32.20
2023-03-06T11:20:50.068Z,34.53
2023-03-06T11:23:43.168Z,30.45
2023-03-06T11:26:42.340Z,26.75
2023-03-06T11:29:40.948Z,31.12
2023-03-06T11:32:37.400Z,32.10
2023-03-06T11:35:33.656Z,28.38
2023-03-06T11:38:31.176Z,32.63
2023-03-06T11:41:36.825Z,30.73
2023-03-06T11:47:34.208Z,31.87
2023-03-06T11:50:29.465Z,29.87
2023-03-06T11:53:23.420Z,31.73
2023-03-06T11:56:34.450Z,24.43
2023-03-06T12:02:48.317Z,29.52
2023-03-06T12:05:45.501Z,33.10
2023-03-06T12:08:45.188Z,25.72
2023-03-06T12:11:40.830Z,29.67
2023-03-06T12:14:40.431Z,25.02
2023-03-06T12:17:38.526Z,31.57
2023-03-06T12:20:44.089Z,35.45
2023-03-06T12:23:47.412Z,28.40
2023-03-06T12:26:53.925Z,23.20
2023-03-06T12:30:03.878Z,16.07
2023-03-06T12:33:00.376Z,29.05
2023-03-06T12:36:02.066Z,31.50
2023-03-06T12:39:07.363Z,17.15
2023-03-06T12:42:33.619Z,14.80
2023-03-06T12:45:33.115Z,18.95
2023-03-06T12:48:28.092Z,20.20
2023-03-06T12:51:22.326Z,17.52
2023-03-06T12:54:19.334Z,18.45
2023-03-06T12:57:13.403Z,16.73
2023-03-06T13:00:04.798Z,18.02
2023-03-06T13:03:20.562Z,13.45
2023-03-06T13:06:51.515Z,15.63
2023-03-06T13:10:22.649Z,19.25
2023-03-06T13:13:42.204Z,20.32
2023-03-06T13:16:36.767Z,19.70
2023-03-06T13:19:28.883Z,18.73
2023-03-06T13:22:29.304Z,16.12
2023-03-06T13:28:50.675Z,17.07
2023-03-06T13:32:19.678Z,16.27
2023-03-06T13:35:57.831Z,15.35
2023-03-06T13:42:00.324Z,15.53
2023-03-06T13:44:56.762Z,15.38
2023-03-06T13:48:37.180Z,9.23
2023-03-06T13:50:52.593Z,11.73
2023-03-06T13:54:12.969Z,17.20
2023-03-06T13:57:40.314Z,14.60
2023-03-06T14:00:50.223Z,14.90
2023-03-06T14:04:41.827Z,13.28
2023-03-06T14:07:40.245Z,12.65
2023-03-06T14:14:25.308Z,11.53
2023-03-06T14:21:01.143Z,11.90
2023-03-06T14:24:40.134Z,15.18
2023-03-06T14:28:14.100Z,10.20
2023-03-06T14:31:38.314Z,12.40
2023-03-06T14:35:15.326Z,11.08
2023-03-06T14:41:59.253Z,11.60
2023-03-06T14:45:31.418Z,10.63
2023-03-06T14:49:10.281Z,15.60
2023-03-06T14:52:35.159Z,12.03
2023-03-06T14:56:07.227Z,9.93
2023-03-06T14:59:38.185Z,12.75
2023-03-06T15:03:10.826Z,9.18
2023-03-06T15:06:46.712Z,10.78
2023-03-06T15:10:16.244Z,13.18
2023-03-06T15:13:49.378Z,9.80
2023-03-06T15:17:31.597Z,8.40
2023-03-06T15:21:11.188Z,14.43
2023-03-06T15:27:37.598Z,11.35
2023-03-06T15:30:31.207Z,13.98
2023-03-06T15:33:29.879Z,13.10
2023-03-06T15:36:35.384Z,13.35
2023-03-06T15:39:47.540Z,11.60
2023-03-06T15:42:38.115Z,8.10
2023-03-06T15:45:32.291Z,12.60
2023-03-06T15:48:23.715Z,12.07
2023-03-06T15:51:15.164Z,13.35
2023-03-06T15:54:12.569Z,11.57
2023-03-06T15:57:05.207Z,12.00
2023-03-06T16:00:26.438Z,12.03
2023-03-06T16:03:10.701Z,14.15
2023-03-06T16:06:05.320Z,13.65
2023-03-06T16:09:01.272Z,13.20
2023-03-06T16:11:52.936Z,13.20
2023-03-06T16:14:44.628Z,12.75
2023-03-06T16:17:35.912Z,12.33
2023-03-06T16:20:33.792Z,10.88
2023-03-06T16:23:27.541Z,14.40
2023-03-06T16:26:23.096Z,13.25
2023-03-06T16:29:19.405Z,11.12
2023-03-06T16:32:21.241Z,10.15
2023-03-06T16:35:14.369Z,10.40
2023-03-06T16:38:05.816Z,10.28
2023-03-06T16:41:04.989Z,10.10
2023-03-06T16:43:59.999Z,12.78
2023-03-06T16:46:52.835Z,14.03
2023-03-06T16:49:44.357Z,14.78
2023-03-06T16:52:36.182Z,14.03
2023-03-06T16:55:29.444Z,14.23
2023-03-06T16:58:20.763Z,13.90
2023-03-06T17:01:18.479Z,11.95
2023-03-06T17:04:10.429Z,15.98
2023-03-06T17:07:02.628Z,14.68
2023-03-06T17:09:54.283Z,12.43
2023-03-06T17:12:47.554Z,14.38
2023-03-06T17:15:39.540Z,14.10
2023-03-06T17:18:43.840Z,13.15
2023-03-06T17:21:55.004Z,15.58
2023-03-06T17:24:43.038Z,12.82
2023-03-06T17:27:38.393Z,14.73
2023-03-06T17:30:29.935Z,17.82
2023-03-06T17:33:21.967Z,12.60
2023-03-06T17:36:15.538Z,11.57
2023-03-06T17:42:36.557Z,14.20
2023-03-06T17:45:47.947Z,14.10
2023-03-06T17:48:41.633Z,14.38
2023-03-06T17:51:32.793Z,13.88
2023-03-06T17:54:26.235Z,12.05
2023-03-06T17:57:17.443Z,11.78
2023-03-06T18:00:11.097Z,15.63
2023-03-06T18:03:06.776Z,14.05
2023-03-06T18:06:04.203Z,15.30
2023-03-06T18:08:56.434Z,13.38
2023-03-06T18:11:55.805Z,15.70
2023-03-06T18:14:50.859Z,14.20
2023-03-06T18:17:42.185Z,12.90
2023-03-06T18:20:33.876Z,12.50
2023-03-06T18:23:32.833Z,15.15
2023-03-06T18:26:24.485Z,12.98
2023-03-06T18:29:16.344Z,14.10
2023-03-06T18:32:10.166Z,14.87
2023-03-06T18:35:01.814Z,15.68
2023-03-06T18:37:53.587Z,18.75
2023-03-06T18:40:46.489Z,14.75
2023-03-06T18:43:38.759Z,15.68
2023-03-06T18:46:31.759Z,13.40
2023-03-06T18:49:25.770Z,13.62
2023-03-06T18:52:18.655Z,12.47
2023-03-06T18:55:11.672Z,13.80
2023-03-06T18:58:03.970Z,12.85
2023-03-06T19:00:57.704Z,15.08
2023-03-06T19:03:54.646Z,13.45
2023-03-06T19:06:44.891Z,13.00
2023-03-06T19:09:36.731Z,15.18
2023-03-06T19:12:28.569Z,12.68
2023-03-06T19:15:20.229Z,15.72
2023-03-06T19:18:12.702Z,14.20
2023-03-06T19:21:11.642Z,14.43
2023-03-06T19:24:04.764Z,12.82
2023-03-06T19:26:56.238Z,14.38
2023-03-06T19:29:47.230Z,16.95
2023-03-06T19:32:38.915Z,14.65
2023-03-06T19:35:30.331Z,14.05
2023-03-06T19:38:23.703Z,12.50
2023-03-06T19:41:16.117Z,14.20
2023-03-06T19:44:07.667Z,16.32
2023-03-06T19:46:59.052Z,15.35
2023-03-06T19:49:50.220Z,13.80
2023-03-06T19:52:50.066Z,14.23
2023-03-06T19:55:41.541Z,11.75
2023-03-06T19:58:33.240Z,12.75
2023-03-06T20:01:27.100Z,14.28
2023-03-06T20:04:20.247Z,13.08
2023-03-06T20:07:13.640Z,13.03
2023-03-06T20:10:05.599Z,15.20
2023-03-06T20:12:57.080Z,15.40
2023-03-06T20:15:48.917Z,11.80
2023-03-06T20:18:40.649Z,12.78
2023-03-06T20:21:33.698Z,14.07
2023-03-06T20:27:17.287Z,11.68
2023-03-06T20:30:10.412Z,12.93
2023-03-06T20:33:01.947Z,13.03
2023-03-06T20:35:53.497Z,15.53
2023-03-06T20:38:45.194Z,15.45
2023-03-06T20:41:36.739Z,13.62
2023-03-06T20:44:28.432Z,13.32
2023-03-06T20:47:19.686Z,15.75
2023-03-06T20:50:12.975Z,15.45
2023-03-06T20:53:04.239Z,14.28
2023-03-06T20:55:55.667Z,15.85
2023-03-06T20:58:51.359Z,17.42
2023-03-06T21:01:45.373Z,16.45
2023-03-06T21:04:38.315Z,15.10
2023-03-06T21:07:30.042Z,16.27
2023-03-06T21:10:21.830Z,14.05
2023-03-06T21:13:13.652Z,13.65
2023-03-06T21:16:07.578Z,15.28
2023-03-06T21:19:00.312Z,15.70
2023-03-06T21:21:51.791Z,13.88
2023-03-06T21:28:13.687Z,15.88
2023-03-06T21:31:06.864Z,16.40
2023-03-06T21:33:59.658Z,16.05
2023-03-06T21:36:53.078Z,14.15
2023-03-06T21:39:44.683Z,14.53
2023-03-06T21:42:37.193Z,18.10
2023-03-06T21:45:30.506Z,13.15
2023-03-06T21:48:22.006Z,13.90
2023-03-06T22:05:21.682Z,19.05
2023-03-06T22:08:13.080Z,20.57
2023-03-06T22:11:09.102Z,17.45
2023-03-06T22:14:01.300Z,14.05
2023-03-06T22:16:54.313Z,13.93
2023-03-06T22:19:45.603Z,17.00
2023-03-06T22:25:53.234Z,15.58
2023-03-06T22:28:45.327Z,15.53
2023-03-06T22:31:38.237Z,14.90
2023-03-06T22:34:39.789Z,13.03
2023-03-06T22:37:32.516Z,17.45
2023-03-06T22:40:24.204Z,13.58
2023-03-06T22:43:17.676Z,15.93
2023-03-06T22:46:11.152Z,18.50
2023-03-06T22:49:03.368Z,15.87
2023-03-06T22:54:36.758Z,15.05
2023-03-06T22:57:28.266Z,17.67
2023-03-06T23:00:20.933Z,14.20
2023-03-06T23:03:12.238Z,16.25
2023-03-06T23:06:05.175Z,16.35
2023-03-06T23:09:09.361Z,14.38
2023-03-06T23:15:02.933Z,13.28
2023-03-06T23:18:12.338Z,14.50
2023-03-06T23:21:23.637Z,14.23
2023-03-06T23:24:36.288Z,16.55
2023-03-06T23:27:35.309Z,15.72
2023-03-06T23:30:26.834Z,15.18
2023-03-06T23:33:18.658Z,16.07
2023-03-06T23:36:12.695Z,15.28
2023-03-06T23:39:04.233Z,17.32
2023-03-06T23:41:55.454Z,16.30
2023-03-06T23:44:46.807Z,14.70
2023-03-06T23:47:38.344Z,14.45
2023-03-06T23:50:29.772Z,15.50
2023-03-06T23:53:22.621Z,14.15
2023-03-06T23:56:14.797Z,16.57
2023-03-06T23:59:06.246Z,15.63
